createdAt,value
2017-09-12T00:00:17.817Z,97801.00
2017-09-12T00:02:44.219Z,97799.09
2017-09-12T00:05:10.720Z,97801.89
2017-09-12T00:07:37.154Z,97793.30
2017-09-12T00:10:03.693Z,97805.33
2017-09-12T00:12:30.126Z,97809.51
2017-09-12T00:14:56.561Z,97810.34
2017-09-12T00:17:22.996Z,97809.38
2017-09-12T00:19:49.430Z,97814.78
2017-09-12T00:22:15.886Z,97809.50
2017-09-12T00:24:42.402Z,97808.34
2017-09-12T00:27:08.837Z,97808.38
2017-09-12T00:29:35.272Z,97801.25
2017-09-12T00:32:01.707Z,97803.42
2017-09-12T00:34:28.142Z,97802.84
2017-09-12T00:36:54.685Z,97806.39
2017-09-12T00:39:21.218Z,97811.53
2017-09-12T00:41:47.620Z,97813.16
2017-09-12T00:44:14.113Z,97801.66
2017-09-12T00:46:40.628Z,97792.66
2017-09-12T00:49:07.025Z,97807.52
2017-09-12T00:51:33.593Z,97797.28
2017-09-12T00:54:00.032Z,97802.24
2017-09-12T00:56:26.443Z,97805.39
2017-09-12T00:58:52.898Z,97804.02
2017-09-12T01:01:19.746Z,97804.23
2017-09-12T01:03:46.182Z,97813.11
2017-09-12T01:06:12.586Z,97814.27
2017-09-12T01:08:39.046Z,97795.41
2017-09-12T01:11:05.480Z,97795.41
2017-09-12T01:13:31.915Z,97786.98
2017-09-12T01:15:58.353Z,97792.12
2017-09-12T01:18:25.399Z,97764.17
2017-09-12T01:20:51.835Z,97761.88
2017-09-12T01:23:18.215Z,97759.95
2017-09-12T01:25:44.702Z,97759.75
2017-09-12T01:28:11.138Z,97755.22
2017-09-12T01:30:37.571Z,97741.38
2017-09-12T01:33:04.009Z,97732.67
2017-09-12T01:35:30.443Z,97731.38
2017-09-12T01:37:56.878Z,97732.33
2017-09-12T01:40:23.266Z,97724.47
2017-09-12T01:42:49.734Z,97711.97
2017-09-12T01:45:16.127Z,97731.64
2017-09-12T01:47:42.599Z,97708.78
2017-09-12T01:50:09.664Z,97719.59
2017-09-12T01:52:36.083Z,97714.86
2017-09-12T01:55:02.524Z,97701.09
2017-09-12T01:57:28.966Z,97699.99
2017-09-12T01:59:55.385Z,97695.07
2017-09-12T02:02:21.797Z,97679.41
2017-09-12T02:04:48.994Z,97691.20
2017-09-12T02:07:15.449Z,97687.88
2017-09-12T02:09:41.862Z,97682.89
2017-09-12T02:12:08.253Z,97690.75
2017-09-12T02:14:34.716Z,97660.84
2017-09-12T02:17:01.179Z,97685.06
2017-09-12T02:19:27.577Z,97689.02
2017-09-12T02:21:54.036Z,97680.88
2017-09-12T02:24:20.575Z,97652.42
2017-09-12T02:26:46.928Z,97685.06
2017-09-12T02:29:13.443Z,97688.61
2017-09-12T02:31:39.879Z,97692.19
2017-09-12T02:34:06.418Z,97685.53
2017-09-12T02:36:32.855Z,97695.12
2017-09-12T02:38:59.235Z,97700.25
2017-09-12T02:41:25.722Z,97713.05
2017-09-12T02:43:52.165Z,97711.06
2017-09-12T02:46:18.592Z,97694.58
2017-09-12T02:48:44.924Z,97696.53
2017-09-12T02:51:11.373Z,97697.33
2017-09-12T02:53:38.545Z,97705.75
2017-09-12T02:56:04.948Z,97697.55
2017-09-12T02:58:31.382Z,97692.88
2017-09-12T03:00:57.844Z,97698.55
2017-09-12T03:03:24.251Z,97691.94
2017-09-12T03:05:50.684Z,97693.64
2017-09-12T03:08:17.119Z,97690.53
2017-09-12T03:10:43.557Z,97691.66
2017-09-12T03:13:10.023Z,97688.20
2017-09-12T03:15:36.444Z,97682.33
2017-09-12T03:18:02.861Z,97689.22
2017-09-12T03:20:29.296Z,97688.64
2017-09-12T03:22:55.729Z,97682.54
2017-09-12T03:25:22.164Z,97685.72
2017-09-12T03:27:48.601Z,97703.36
2017-09-12T03:30:14.970Z,97714.19
2017-09-12T03:32:41.487Z,97743.61
2017-09-12T03:35:07.877Z,97714.43
2017-09-12T03:37:34.320Z,97708.75
2017-09-12T03:40:00.785Z,97698.87
2017-09-12T03:42:27.207Z,97697.16
2017-09-12T03:44:53.627Z,97696.61
2017-09-12T03:47:20.068Z,97699.75
2017-09-12T03:49:46.484Z,97700.36
2017-09-12T03:52:12.947Z,97708.02
2017-09-12T03:54:39.391Z,97718.42
2017-09-12T03:57:05.767Z,97733.09
2017-09-12T03:59:32.232Z,97736.85
2017-09-12T04:01:58.687Z,97747.46
2017-09-12T04:04:25.122Z,97753.72
2017-09-12T04:06:51.535Z,97755.30
2017-09-12T04:09:17.941Z,97763.55
2017-09-12T04:11:44.427Z,97762.59
2017-09-12T04:14:10.838Z,97753.00
2017-09-12T04:16:37.279Z,97750.19
2017-09-12T04:19:03.731Z,97747.06
2017-09-12T04:21:30.167Z,97747.44
2017-09-12T04:23:56.601Z,97753.33
2017-09-12T04:26:23.043Z,97751.53
2017-09-12T04:28:49.427Z,97747.63
2017-09-12T04:31:15.906Z,97751.91
2017-09-12T04:33:42.292Z,97752.30
2017-09-12T04:36:08.776Z,97747.39
2017-09-12T04:38:35.210Z,97749.71
2017-09-12T04:41:01.600Z,97753.98
2017-09-12T04:43:28.075Z,97764.77
2017-09-12T04:45:54.495Z,97764.73
2017-09-12T04:48:20.951Z,97759.24
2017-09-12T04:50:47.388Z,97752.98
2017-09-12T04:53:13.820Z,97758.84
2017-09-12T04:55:40.152Z,97748.22
2017-09-12T04:58:06.535Z,97747.33
2017-09-12T05:00:32.920Z,97740.09
2017-09-12T05:02:59.355Z,97736.84
2017-09-12T05:05:25.790Z,97757.20
2017-09-12T05:07:52.635Z,97743.49
2017-09-12T05:10:19.087Z,97760.83
2017-09-12T05:12:45.451Z,97757.61
2017-09-12T05:15:11.942Z,97751.64
2017-09-12T05:17:38.374Z,97749.22
2017-09-12T05:20:04.765Z,97756.53
2017-09-12T05:22:31.235Z,97752.58
2017-09-12T05:24:57.679Z,97753.52
2017-09-12T05:27:24.114Z,97765.20
2017-09-12T05:29:50.568Z,97776.95
2017-09-12T05:32:16.998Z,97788.31
2017-09-12T05:34:43.418Z,97771.91
2017-09-12T05:37:09.853Z,97767.56
2017-09-12T05:39:36.239Z,97755.84
2017-09-12T05:42:02.723Z,97770.35
2017-09-12T05:44:29.157Z,97774.00
2017-09-12T05:46:55.589Z,97769.89
2017-09-12T05:49:22.028Z,97771.45
2017-09-12T05:51:48.462Z,97765.87
2017-09-12T05:54:14.898Z,97773.39
2017-09-12T05:56:41.279Z,97764.95
2017-09-12T05:59:07.752Z,97766.63
2017-09-12T06:01:34.206Z,97770.99
2017-09-12T06:04:00.638Z,97765.55
2017-09-12T06:06:27.077Z,97766.25
2017-09-12T06:08:53.600Z,97770.27
2017-09-12T06:11:20.046Z,97766.99
2017-09-12T06:13:46.785Z,97773.87
2017-09-12T06:16:13.221Z,97778.66
2017-09-12T06:18:39.655Z,97782.30
2017-09-12T06:21:06.094Z,97776.08
2017-09-12T06:23:32.475Z,97789.58
2017-09-12T06:25:58.911Z,97797.38
2017-09-12T06:28:25.294Z,97802.64
2017-09-12T06:30:51.728Z,97807.58
2017-09-12T06:33:18.183Z,97809.94
2017-09-12T06:35:44.701Z,97815.41
2017-09-12T06:38:11.341Z,97813.75
2017-09-12T06:40:37.776Z,97821.27
2017-09-12T06:43:04.212Z,97822.50
2017-09-12T06:45:30.644Z,97821.14
2017-09-12T06:47:57.388Z,97826.45
2017-09-12T06:50:23.843Z,97834.47
2017-09-12T06:52:50.260Z,97833.33
2017-09-12T06:55:16.694Z,97832.27
2017-09-12T06:57:43.129Z,97835.19
2017-09-12T07:00:09.510Z,97838.76
2017-09-12T07:02:35.996Z,97836.02
2017-09-12T07:05:02.432Z,97833.06
2017-09-12T07:07:28.866Z,97845.19
2017-09-12T07:09:55.301Z,97846.31
2017-09-12T07:12:21.735Z,97843.87
2017-09-12T07:14:48.136Z,97844.05
2017-09-12T07:17:14.504Z,97839.88
2017-09-12T07:19:41.758Z,97851.30
2017-09-12T07:22:08.189Z,97849.94
2017-09-12T07:24:34.627Z,97844.77
2017-09-12T07:27:01.062Z,97858.09
2017-09-12T07:29:27.497Z,97863.44
2017-09-12T07:31:53.932Z,97865.62
2017-09-12T07:34:20.366Z,97868.08
2017-09-12T07:36:47.314Z,97879.16
2017-09-12T07:39:13.750Z,97882.66
2017-09-12T07:41:40.185Z,97879.06
2017-09-12T07:44:06.927Z,97891.38
2017-09-12T07:46:33.360Z,97896.09
2017-09-12T07:48:59.753Z,97894.62
2017-09-12T07:51:26.233Z,97892.58
2017-09-12T07:53:52.648Z,97893.69
2017-09-12T07:56:19.389Z,97905.53
2017-09-12T07:58:45.843Z,97906.88
2017-09-12T08:01:12.227Z,97899.87
2017-09-12T08:03:38.693Z,97901.09
2017-09-12T08:06:05.249Z,97917.38
2017-09-12T08:08:32.097Z,97911.73
2017-09-12T08:10:58.525Z,97903.65
2017-09-12T08:13:25.835Z,97913.94
2017-09-12T08:15:52.736Z,97917.91
2017-09-12T08:18:19.574Z,97922.06
2017-09-12T08:20:46.009Z,97923.62
2017-09-12T08:23:12.451Z,97924.56
2017-09-12T08:25:39.084Z,97921.36
2017-09-12T08:28:05.621Z,97933.34
2017-09-12T08:30:33.285Z,97935.71
2017-09-12T08:33:00.358Z,97941.68
2017-09-12T08:35:26.853Z,97932.04
2017-09-12T08:37:53.717Z,97930.84
2017-09-12T08:40:20.462Z,97930.23
2017-09-12T08:42:47.615Z,97938.71
2017-09-12T08:45:14.355Z,97949.19
2017-09-12T08:47:40.991Z,97944.92
2017-09-12T08:50:07.631Z,97939.44
2017-09-12T08:52:34.692Z,97933.80
2017-09-12T08:55:01.320Z,97944.85
2017-09-12T08:57:27.959Z,97936.59
2017-09-12T08:59:54.787Z,97941.18
2017-09-12T09:02:21.498Z,97938.24
2017-09-12T09:04:48.084Z,97941.86
2017-09-12T09:07:14.519Z,97947.83
2017-09-12T09:09:41.076Z,97936.31
2017-09-12T09:12:07.594Z,97939.17
2017-09-12T09:14:34.133Z,97933.63
2017-09-12T09:17:01.591Z,97936.90
2017-09-12T09:19:28.025Z,97946.67
2017-09-12T09:21:54.459Z,97944.36
2017-09-12T09:24:20.894Z,97950.02
2017-09-12T09:26:47.635Z,97946.61
2017-09-12T09:29:14.068Z,97939.61
2017-09-12T09:31:40.462Z,97939.52
2017-09-12T09:34:08.170Z,97936.75
2017-09-12T09:36:34.605Z,97944.36
2017-09-12T09:39:01.640Z,97947.79
2017-09-12T09:41:28.396Z,97953.67
2017-09-12T09:43:54.935Z,97951.56
2017-09-12T09:46:21.396Z,97953.72
2017-09-12T09:48:48.214Z,97957.41
2017-09-12T09:51:14.948Z,97958.95
2017-09-12T09:53:41.799Z,97962.83
2017-09-12T09:56:08.221Z,97965.25
2017-09-12T09:58:34.640Z,97947.45
2017-09-12T10:01:01.310Z,97967.20
2017-09-12T10:03:27.853Z,97974.00
2017-09-12T10:05:55.156Z,97972.16
2017-09-12T10:08:22.229Z,97971.03
2017-09-12T10:10:48.891Z,97978.54
2017-09-12T10:13:15.275Z,97980.14
2017-09-12T10:15:41.969Z,97988.60
2017-09-12T10:18:08.581Z,98005.17
2017-09-12T10:20:35.249Z,97998.45
2017-09-12T10:23:01.683Z,98001.55
2017-09-12T10:25:28.392Z,98005.81
2017-09-12T10:27:54.854Z,98010.72
2017-09-12T10:30:21.396Z,98007.73
2017-09-12T10:32:47.933Z,98008.59
2017-09-12T10:35:14.316Z,97998.80
2017-09-12T10:37:40.775Z,98019.37
2017-09-12T10:40:07.602Z,98019.07
2017-09-12T10:42:34.799Z,98019.48
2017-09-12T10:45:01.234Z,98014.52
2017-09-12T10:47:27.794Z,98043.89
2017-09-12T10:49:54.717Z,98033.03
2017-09-12T10:52:21.153Z,98031.53
2017-09-12T10:54:47.587Z,98017.02
2017-09-12T10:57:14.244Z,98037.65
2017-09-12T10:59:40.842Z,98036.13
2017-09-12T11:02:07.280Z,98032.20
2017-09-12T11:04:33.769Z,98044.55
2017-09-12T11:07:00.729Z,98044.72
2017-09-12T11:09:27.177Z,98039.98
2017-09-12T11:11:53.653Z,98038.31
2017-09-12T11:14:20.309Z,98037.60
2017-09-12T11:16:46.784Z,98045.09
2017-09-12T11:19:13.186Z,98044.72
2017-09-12T11:21:39.601Z,98044.61
2017-09-12T11:24:06.343Z,98039.98
2017-09-12T11:26:33.007Z,98035.21
2017-09-12T11:28:59.404Z,98024.85
2017-09-12T11:31:26.187Z,98027.95
2017-09-12T11:33:52.890Z,98033.13
2017-09-12T11:36:19.314Z,98041.33
2017-09-12T11:38:45.977Z,98043.85
2017-09-12T11:41:12.411Z,98039.40
2017-09-12T11:43:38.846Z,98043.05
2017-09-12T11:46:05.280Z,98036.13
2017-09-12T11:48:31.716Z,98030.23
2017-09-12T11:50:58.278Z,98034.66
2017-09-12T11:53:24.996Z,98039.06
2017-09-12T11:55:51.533Z,98038.44
2017-09-12T11:58:18.073Z,98037.51
2017-09-12T12:00:44.638Z,98037.50
2017-09-12T12:03:11.248Z,98045.89
2017-09-12T12:05:38.075Z,98052.92
2017-09-12T12:08:07.352Z,98060.68
2017-09-12T12:10:34.136Z,98062.91
2017-09-12T12:13:01.187Z,98056.97
2017-09-12T12:15:27.929Z,98064.99
2017-09-12T12:17:54.508Z,98062.80
2017-09-12T12:20:21.159Z,98050.81
2017-09-12T12:22:47.745Z,98050.07
2017-09-12T12:25:14.182Z,98053.19
2017-09-12T12:27:40.716Z,98059.39
2017-09-12T12:30:07.130Z,98053.48
2017-09-12T12:32:33.573Z,98060.45
2017-09-12T12:35:00.841Z,98063.59
2017-09-12T12:37:27.360Z,98069.78
2017-09-12T12:39:53.934Z,98071.83
2017-09-12T12:42:20.448Z,98063.09
2017-09-12T12:44:47.194Z,98062.86
2017-09-12T12:47:13.732Z,98075.54
2017-09-12T12:49:40.165Z,98067.17
2017-09-12T12:52:07.011Z,98078.20
2017-09-12T12:54:33.759Z,98088.86
2017-09-12T12:57:00.189Z,98095.30
2017-09-12T12:59:27.254Z,98087.23
2017-09-12T13:01:53.672Z,98101.30
2017-09-12T13:04:20.265Z,98083.86
2017-09-12T13:06:47.259Z,98096.03
2017-09-12T13:09:13.693Z,98092.67
2017-09-12T13:11:40.129Z,98098.70
2017-09-12T13:14:06.795Z,98087.70
2017-09-12T13:16:33.401Z,98108.74
2017-09-12T13:18:59.794Z,98088.47
2017-09-12T13:21:26.382Z,98091.48
2017-09-12T13:23:53.328Z,98097.47
2017-09-12T13:26:19.717Z,98099.38
2017-09-12T13:28:46.094Z,98115.03
2017-09-12T13:31:12.529Z,98117.62
2017-09-12T13:33:38.917Z,98125.44
2017-09-12T13:36:05.372Z,98122.94
2017-09-12T13:38:31.936Z,98123.19
2017-09-12T13:40:58.322Z,98139.52
2017-09-12T13:43:24.704Z,98148.33
2017-09-12T13:45:52.195Z,98143.70
2017-09-12T13:48:18.803Z,98153.39
2017-09-12T13:50:45.790Z,98157.30
2017-09-12T13:53:12.335Z,98157.81
2017-09-12T13:55:39.032Z,98159.23
2017-09-12T13:58:05.541Z,98152.57
2017-09-12T14:00:33.640Z,98154.31
2017-09-12T14:03:00.075Z,98155.17
2017-09-12T14:05:26.716Z,98145.83
2017-09-12T14:07:53.821Z,98156.28
2017-09-12T14:10:20.353Z,98153.62
2017-09-12T14:12:46.790Z,98163.47
2017-09-12T14:15:13.788Z,98121.28
2017-09-12T14:17:40.527Z,98133.05
2017-09-12T14:20:06.914Z,98159.41
2017-09-12T14:22:34.010Z,98152.36
2017-09-12T14:25:00.575Z,98161.05
2017-09-12T14:27:27.087Z,98161.83
2017-09-12T14:29:54.135Z,98161.90
2017-09-12T14:32:20.775Z,98161.82
2017-09-12T14:34:47.150Z,98171.49
2017-09-12T14:37:13.746Z,98174.20
2017-09-12T14:39:40.183Z,98166.40
2017-09-12T14:42:06.552Z,98174.44
2017-09-12T14:44:33.051Z,98173.61
2017-09-12T14:46:59.588Z,98174.88
2017-09-12T14:49:25.945Z,98152.11
2017-09-12T14:51:52.356Z,98175.77
2017-09-12T14:54:18.739Z,98182.56
2017-09-12T14:56:45.167Z,98181.16
2017-09-12T14:59:16.668Z,98187.16
2017-09-12T15:01:43.770Z,98183.23
2017-09-12T15:04:10.215Z,98184.05
2017-09-12T15:06:36.805Z,98189.38
2017-09-12T15:09:03.362Z,98188.78
2017-09-12T15:11:29.776Z,98190.37
2017-09-12T15:13:56.632Z,98191.52
2017-09-12T15:16:23.063Z,98197.92
2017-09-12T15:18:49.489Z,98199.70
2017-09-12T15:21:15.871Z,98200.89
2017-09-12T15:23:42.358Z,98206.34
2017-09-12T15:26:08.794Z,98207.48
2017-09-12T15:28:35.229Z,98207.55
2017-09-12T15:31:01.615Z,98205.91
2017-09-12T15:33:28.768Z,98217.30
2017-09-12T15:35:55.199Z,98215.23
2017-09-12T15:38:21.689Z,98227.25
2017-09-12T15:40:48.120Z,98217.05
2017-09-12T15:43:14.540Z,98237.23
2017-09-12T15:45:40.990Z,98235.25
2017-09-12T15:48:07.401Z,98242.05
2017-09-12T15:50:34.670Z,98247.50
2017-09-12T15:53:01.118Z,98251.30
2017-09-12T15:55:27.651Z,98252.69
2017-09-12T15:57:54.086Z,98258.41
2017-09-12T16:00:20.523Z,98256.39
2017-09-12T16:02:46.956Z,98257.58
2017-09-12T16:05:13.391Z,98262.66
2017-09-12T16:07:40.590Z,98264.02
2017-09-12T16:10:07.062Z,98268.03
2017-09-12T16:12:33.529Z,98271.98
2017-09-12T16:14:59.971Z,98271.89
2017-09-12T16:17:26.384Z,98275.45
2017-09-12T16:19:52.818Z,98277.06
2017-09-12T16:22:19.256Z,98283.20
2017-09-12T16:24:46.509Z,98284.70
2017-09-12T16:27:13.355Z,98279.42
2017-09-12T16:29:39.788Z,98283.12
2017-09-12T16:32:06.226Z,98298.05
2017-09-12T16:34:32.657Z,98288.09
2017-09-12T16:36:59.095Z,98293.63
2017-09-12T16:39:25.487Z,98294.27
2017-09-12T16:41:51.963Z,98295.55
2017-09-12T16:44:18.397Z,98298.59
2017-09-12T16:46:44.780Z,98306.09
2017-09-12T16:49:11.985Z,98310.88
2017-09-12T16:51:38.419Z,98316.67
2017-09-12T16:54:04.854Z,98312.77
2017-09-12T16:56:31.289Z,98316.34
2017-09-12T16:58:57.639Z,98322.08
2017-09-12T17:01:24.056Z,98329.21
2017-09-12T17:03:50.494Z,98320.36
2017-09-12T17:06:17.642Z,98339.06
2017-09-12T17:08:44.100Z,98349.38
2017-09-12T17:11:10.487Z,98354.11
2017-09-12T17:13:36.948Z,98357.38
2017-09-12T17:16:03.383Z,98363.27
2017-09-12T17:18:29.773Z,98363.66
2017-09-12T17:20:56.154Z,98372.05
2017-09-12T17:23:23.404Z,98364.02
2017-09-12T17:25:49.840Z,98373.69
2017-09-12T17:28:16.275Z,98386.10
2017-09-12T17:30:42.707Z,98385.61
2017-09-12T17:33:09.144Z,98382.48
2017-09-12T17:35:35.680Z,98387.39
2017-09-12T17:38:02.108Z,98385.64
2017-09-12T17:40:29.272Z,98376.02
2017-09-12T17:42:55.702Z,98391.00
2017-09-12T17:45:22.136Z,98394.00
2017-09-12T17:47:48.590Z,98401.31
2017-09-12T17:50:15.015Z,98406.09
2017-09-12T17:52:41.441Z,98407.49
2017-09-12T17:55:07.877Z,98415.97
2017-09-12T17:57:35.028Z,98418.73
2017-09-12T18:00:01.464Z,98424.67
2017-09-12T18:02:27.887Z,98426.44
2017-09-12T18:04:54.287Z,98430.45
2017-09-12T18:07:20.749Z,98433.42
2017-09-12T18:09:47.221Z,98435.19
2017-09-12T18:12:13.740Z,98442.91
2017-09-12T18:14:40.790Z,98448.66
2017-09-12T18:17:07.224Z,98448.69
2017-09-12T18:19:33.659Z,98445.13
2017-09-12T18:22:00.095Z,98451.45
2017-09-12T18:24:26.530Z,98444.76
2017-09-12T18:26:52.965Z,98429.84
2017-09-12T18:29:19.502Z,98442.61
2017-09-12T18:31:46.654Z,98418.83
2017-09-12T18:34:13.039Z,98428.44
2017-09-12T18:36:39.523Z,98446.13
2017-09-12T18:39:05.906Z,98453.42
2017-09-12T18:41:32.375Z,98462.45
2017-09-12T18:43:58.817Z,98470.70
2017-09-12T18:46:25.212Z,98473.27
2017-09-12T18:48:52.299Z,98471.48
2017-09-12T18:51:18.747Z,98476.58
2017-09-12T18:53:45.181Z,98475.74
2017-09-12T18:56:11.620Z,98475.71
2017-09-12T18:58:38.052Z,98486.87
2017-09-12T19:01:04.486Z,98490.55
2017-09-12T19:03:30.922Z,98496.83
2017-09-12T19:05:58.177Z,98502.48
2017-09-12T19:08:24.610Z,98501.91
2017-09-12T19:10:51.047Z,98495.01
2017-09-12T19:13:17.481Z,98489.11
2017-09-12T19:15:43.863Z,98488.34
2017-09-12T19:18:10.299Z,98492.43
2017-09-12T19:20:36.791Z,98485.52
2017-09-12T19:23:03.887Z,98488.00
2017-09-12T19:25:30.346Z,98488.91
2017-09-12T19:27:56.806Z,98485.34
2017-09-12T19:30:23.198Z,98490.14
2017-09-12T19:32:49.676Z,98495.62
2017-09-12T19:35:16.112Z,98494.05
2017-09-12T19:37:42.546Z,98491.77
2017-09-12T19:40:09.697Z,98493.25
2017-09-12T19:42:36.132Z,98498.52
2017-09-12T19:45:02.568Z,98506.98
2017-09-12T19:47:28.956Z,98507.53
2017-09-12T19:49:55.437Z,98510.41
2017-09-12T19:52:21.872Z,98517.02
2017-09-12T19:54:48.262Z,98519.98
2017-09-12T19:57:15.512Z,98524.53
2017-09-12T19:59:42.018Z,98524.83
2017-09-12T20:02:08.431Z,98527.41
2017-09-12T20:04:34.865Z,98536.47
2017-09-12T20:07:01.301Z,98539.69
2017-09-12T20:09:27.736Z,98544.53
2017-09-12T20:11:54.171Z,98540.92
2017-09-12T20:14:20.605Z,98548.08
2017-09-12T20:16:46.958Z,98551.69
2017-09-12T20:19:13.373Z,98552.39
2017-09-12T20:21:39.807Z,98556.11
2017-09-12T20:24:06.243Z,98559.98
2017-09-12T20:26:32.700Z,98561.02
2017-09-12T20:28:59.060Z,98561.83
2017-09-12T20:31:26.315Z,98564.84
2017-09-12T20:33:52.801Z,98573.49
2017-09-12T20:36:19.236Z,98572.52
2017-09-12T20:38:45.773Z,98577.56
2017-09-12T20:41:12.123Z,98574.14
2017-09-12T20:43:38.541Z,98582.78
2017-09-12T20:46:04.961Z,98578.23
2017-09-12T20:48:32.227Z,98548.69
2017-09-12T20:50:58.664Z,98580.84
2017-09-12T20:53:25.102Z,98588.58
2017-09-12T20:55:51.483Z,98584.52
2017-09-12T20:58:17.868Z,98587.05
2017-09-12T21:00:44.408Z,98589.14
2017-09-12T21:03:10.839Z,98592.41
2017-09-12T21:05:38.115Z,98590.38
2017-09-12T21:08:04.632Z,98594.50
2017-09-12T21:10:31.067Z,98602.45
2017-09-12T21:12:57.503Z,98603.63
2017-09-12T21:15:23.941Z,98612.61
2017-09-12T21:17:50.374Z,98619.84
2017-09-12T21:20:16.808Z,98624.08
2017-09-12T21:22:43.959Z,98622.29
2017-09-12T21:25:10.393Z,98630.76
2017-09-12T21:27:36.828Z,98633.14
2017-09-12T21:30:03.263Z,98632.70
2017-09-12T21:32:29.697Z,98635.68
2017-09-12T21:34:56.132Z,98641.88
2017-09-12T21:37:22.586Z,98640.20
2017-09-12T21:39:49.821Z,98632.09
2017-09-12T21:42:16.256Z,98637.66
2017-09-12T21:44:42.686Z,98650.45
2017-09-12T21:47:09.227Z,98647.40
2017-09-12T21:49:35.785Z,98642.70
2017-09-12T21:52:02.191Z,98648.45
2017-09-12T21:54:28.635Z,98642.04
2017-09-12T21:56:55.787Z,98646.28
2017-09-12T21:59:22.222Z,98649.16
2017-09-12T22:01:48.607Z,98645.88
2017-09-12T22:04:14.955Z,98649.18
2017-09-12T22:06:41.442Z,98645.95
2017-09-12T22:09:07.859Z,98650.20
2017-09-12T22:11:34.295Z,98657.01
2017-09-12T22:14:01.392Z,98664.25
2017-09-12T22:16:27.882Z,98662.02
2017-09-12T22:18:54.316Z,98661.91
2017-09-12T22:21:20.751Z,98661.13
2017-09-12T22:23:47.188Z,98666.39
2017-09-12T22:26:13.620Z,98657.34
2017-09-12T22:28:40.056Z,98665.09
2017-09-12T22:31:07.208Z,98668.80
2017-09-12T22:33:33.643Z,98682.41
2017-09-12T22:36:00.023Z,98678.05
2017-09-12T22:38:26.511Z,98683.20
2017-09-12T22:40:52.949Z,98682.81
2017-09-12T22:43:19.381Z,98681.91
2017-09-12T22:45:45.819Z,98676.81
2017-09-12T22:48:12.252Z,98686.52
2017-09-12T22:50:38.639Z,98681.09
2017-09-12T22:53:04.986Z,98683.42
2017-09-12T22:55:32.250Z,98683.77
2017-09-12T22:57:58.709Z,98680.90
2017-09-12T23:00:25.142Z,98679.38
2017-09-12T23:02:51.680Z,98681.36
2017-09-12T23:05:18.115Z,98680.27
2017-09-12T23:07:44.549Z,98677.77
2017-09-12T23:10:10.986Z,98681.39
2017-09-12T23:12:38.238Z,98691.43
2017-09-12T23:15:04.674Z,98684.37
2017-09-12T23:17:31.108Z,98693.01
2017-09-12T23:19:57.550Z,98689.20
2017-09-12T23:22:23.978Z,98692.00
2017-09-12T23:24:50.413Z,98686.77
2017-09-12T23:27:16.799Z,98683.27
2017-09-12T23:29:43.897Z,98683.16
2017-09-12T23:32:10.283Z,98693.21
2017-09-12T23:34:36.759Z,98679.39
2017-09-12T23:37:03.201Z,98687.20
2017-09-12T23:39:29.739Z,98693.96
2017-09-12T23:41:56.174Z,98689.70
2017-09-12T23:44:22.609Z,98693.91
2017-09-12T23:46:49.658Z,98699.67
2017-09-12T23:49:16.049Z,98699.05
2017-09-12T23:51:42.481Z,98694.95
2017-09-12T23:54:08.963Z,98700.55
2017-09-12T23:56:35.398Z,98694.95
2017-09-12T23:59:01.854Z,98700.48
